createdAt,value
2022-12-11T00:05:46.591Z,38.80
2022-12-11T00:27:32.627Z,34.90
2022-12-11T00:49:19.559Z,38.00
2022-12-11T01:11:08.820Z,36.90
2022-12-11T01:32:54.840Z,36.10
2022-12-11T01:54:41.087Z,34.00
2022-12-11T02:16:32.519Z,35.00
2022-12-11T02:38:25.592Z,33.00
2022-12-11T03:00:13.545Z,29.80
2022-12-11T03:22:09.635Z,30.70
2022-12-11T03:43:58.477Z,33.80
2022-12-11T04:05:45.916Z,33.40
2022-12-11T04:27:50.588Z,30.50
2022-12-11T04:49:36.324Z,32.60
2022-12-11T05:11:22.292Z,29.80
2022-12-11T05:54:53.035Z,28.60
2022-12-11T06:16:38.885Z,25.90
2022-12-11T07:00:11.115Z,23.90
2022-12-11T07:21:56.817Z,27.70
2022-12-11T07:43:43.094Z,23.50
2022-12-11T08:05:29.075Z,22.20
2022-12-11T08:27:14.886Z,24.00
2022-12-11T09:10:45.380Z,17.20
2022-12-11T09:32:32.468Z,18.20
2022-12-11T09:54:19.261Z,20.30
2022-12-11T10:16:20.976Z,20.10
2022-12-11T10:38:16.916Z,17.90
2022-12-11T11:00:05.195Z,15.40
2022-12-11T11:21:55.313Z,15.60
2022-12-11T11:43:47.644Z,16.20
2022-12-11T12:05:41.915Z,14.50
2022-12-11T12:27:52.129Z,15.60
2022-12-11T12:49:42.306Z,17.50
2022-12-11T13:11:36.497Z,17.80
2022-12-11T13:33:24.755Z,13.60
2022-12-11T13:55:24.345Z,14.10
2022-12-11T14:17:17.583Z,17.30
2022-12-11T14:39:12.102Z,11.70
2022-12-11T15:01:03.758Z,12.30
2022-12-11T15:22:50.027Z,14.40
2022-12-11T15:44:36.620Z,13.90
2022-12-11T16:06:22.749Z,11.90
2022-12-11T16:28:09.682Z,12.40
2022-12-11T16:49:56.545Z,12.50
2022-12-11T17:11:43.696Z,12.80
2022-12-11T17:33:29.529Z,14.70
2022-12-11T18:17:03.635Z,18.00
2022-12-11T18:38:53.331Z,18.40
2022-12-11T19:00:40.576Z,19.70
2022-12-11T19:22:26.455Z,21.00
2022-12-11T20:06:09.502Z,21.30
2022-12-11T20:27:56.614Z,19.60
2022-12-11T20:49:42.736Z,19.50
2022-12-11T21:11:36.576Z,20.30
2022-12-11T21:33:22.664Z,21.50
2022-12-11T21:55:09.588Z,20.60
2022-12-11T22:16:56.318Z,21.30
2022-12-11T22:38:42.156Z,19.00
2022-12-11T23:22:17.149Z,21.30
2022-12-11T23:44:03.380Z,20.20
